Time;durP1;ratioP1;P1;durP2;ratioP2;P2;SDS_P1;SDS_P2;PMS_P1;PMS_P2;Temp;Humidity;BMP_temperature;BMP_pressure;BME280_temperature;BME280_humidity;BME280_pressure;Samples;Min_cycle;Max_cycle;Signal;HPM_P1;HPM_P2
2022/11/10 04:02:33;;;;;;;0.45;0.45;;;16.50;52.40;;;;;;4977385;23;45731;-62
2022/11/10 04:10:27;;;;;;;0.30;0.30;;;16.50;52.50;;;;;;4930552;28;45233;-60
2022/11/10 04:15:43;;;;;;;0.55;0.55;;;16.50;52.50;;;;;;4920469;28;46193;-61
2022/11/10 04:18:25;;;;;;;0.60;0.50;;;16.50;52.50;;;;;;4921799;28;45727;-62
2022/11/10 04:20:55;;;;;;;0.55;0.47;;;16.50;52.50;;;;;;4921844;28;45411;-60
2022/11/10 04:23:34;;;;;;;1.20;0.75;;;16.50;52.50;;;;;;4922469;28;45198;-64
2022/11/10 04:28:50;;;;;;;0.55;0.40;;;16.50;52.50;;;;;;4929623;28;45199;-61
2022/11/10 04:31:16;;;;;;;0.80;0.32;;;16.50;52.50;;;;;;4917092;28;45245;-62
2022/11/10 04:33:42;;;;;;;0.35;0.35;;;16.50;52.50;;;;;;4908821;28;45261;-62
2022/11/10 04:36:08;;;;;;;0.68;0.57;;;16.50;52.50;;;;;;4921541;28;45166;-62
2022/11/10 04:38:34;;;;;;;0.50;0.50;;;16.50;52.50;;;;;;4921058;28;45214;-62
2022/11/10 04:41:00;;;;;;;0.60;0.50;;;16.50;52.50;;;;;;4920488;28;46881;-61
2022/11/10 04:43:25;;;;;;;0.63;0.45;;;16.50;52.50;;;;;;4920473;28;45605;-59
2022/11/10 04:45:51;;;;;;;0.52;0.50;;;16.50;52.50;;;;;;4926174;28;45870;-62
2022/11/10 04:48:16;;;;;;;0.43;0.43;;;16.50;52.50;;;;;;4920227;28;45485;-63
2022/11/10 04:50:42;;;;;;;0.55;0.32;;;16.50;52.50;;;;;;4917125;28;45508;-60
2022/11/10 04:53:08;;;;;;;0.50;0.50;;;16.50;52.50;;;;;;4918924;28;45578;-62
2022/11/10 04:55:34;;;;;;;0.40;0.40;;;16.50;52.50;;;;;;4917848;28;46874;-60
2022/11/10 04:57:59;;;;;;;0.45;0.40;;;16.50;52.50;;;;;;4907512;28;44723;-62
2022/11/10 05:00:25;;;;;;;0.50;0.40;;;16.50;52.50;;;;;;4918764;28;45349;-61
2022/11/10 05:02:50;;;;;;;0.50;0.50;;;16.50;52.50;;;;;;4920741;28;45957;-59
2022/11/10 05:05:16;;;;;;;0.47;0.40;;;16.50;52.50;;;;;;4925206;28;46991;-60
2022/11/10 05:07:41;;;;;;;0.45;0.45;;;16.50;52.40;;;;;;4923626;28;45193;-58
2022/11/10 05:10:07;;;;;;;0.68;0.57;;;16.50;52.50;;;;;;4918871;28;45295;-57
2022/11/10 05:12:32;;;;;;;0.43;0.43;;;16.50;52.50;;;;;;4923203;28;45212;-62
2022/11/10 05:14:58;;;;;;;0.73;0.40;;;16.50;52.50;;;;;;4920305;28;45948;-63
2022/11/10 05:17:23;;;;;;;0.45;0.45;;;16.50;52.50;;;;;;4921918;28;45481;-59
2022/11/10 05:19:49;;;;;;;0.40;0.40;;;16.50;52.50;;;;;;4922257;28;45212;-60
2022/11/10 05:22:14;;;;;;;0.40;0.40;;;16.50;52.50;;;;;;4927904;28;45201;-62
2022/11/10 05:24:40;;;;;;;0.75;0.60;;;16.50;52.50;;;;;;4919297;28;47012;-61
2022/11/10 05:27:07;;;;;;;0.60;0.50;;;16.50;52.50;;;;;;4913045;28;45352;-63
2022/11/10 05:29:32;;;;;;;0.45;0.30;;;16.50;52.50;;;;;;4917999;28;45439;-62
2022/11/10 05:31:58;;;;;;;0.60;0.50;;;16.50;52.50;;;;;;4920242;28;45587;-59
2022/11/10 05:34:24;;;;;;;0.73;0.60;;;16.50;52.50;;;;;;4921084;28;46024;-62
2022/11/10 05:36:49;;;;;;;0.60;0.50;;;16.50;52.50;;;;;;4915111;28;46592;-63
2022/11/10 05:39:15;;;;;;;0.45;0.45;;;16.50;52.50;;;;;;4911617;28;45303;-58
2022/11/10 05:41:40;;;;;;;0.35;0.35;;;16.50;52.50;;;;;;4894040;28;45244;-60
2022/11/10 05:44:06;;;;;;;0.70;0.70;;;16.50;52.50;;;;;;4917726;28;46102;-65
2022/11/10 05:46:31;;;;;;;0.77;0.50;;;16.50;52.50;;;;;;4916014;28;45114;-61
2022/11/10 05:48:57;;;;;;;0.30;0.30;;;16.50;52.50;;;;;;4918646;28;45195;-60
2022/11/10 05:51:23;;;;;;;0.30;0.30;;;16.50;52.50;;;;;;4904456;28;45600;-62
2022/11/10 05:53:48;;;;;;;0.40;0.32;;;16.50;52.50;;;;;;4914219;28;45949;-62
2022/11/10 05:56:14;;;;;;;0.45;0.45;;;16.50;52.50;;;;;;4919180;28;45210;-64
2022/11/10 05:58:39;;;;;;;0.47;0.47;;;16.50;52.50;;;;;;4933635;28;45497;-64
2022/11/10 06:01:05;;;;;;;0.30;0.30;;;16.50;52.50;;;;;;4911543;28;45498;-62
2022/11/10 06:03:30;;;;;;;0.40;0.40;;;16.50;52.50;;;;;;4913593;28;46962;-61
2022/11/10 06:05:56;;;;;;;0.50;0.30;;;16.50;52.50;;;;;;4912510;28;45207;-61
2022/11/10 06:08:21;;;;;;;0.90;0.60;;;16.50;52.50;;;;;;4900618;28;44997;-62
2022/11/10 06:10:47;;;;;;;0.43;0.40;;;16.50;52.50;;;;;;4915077;28;45650;-62
2022/11/10 06:13:13;;;;;;;0.50;0.50;;;16.50;52.50;;;;;;4913404;28;45593;-62
2022/11/10 06:15:39;;;;;;;0.70;0.60;;;16.50;52.50;;;;;;4916581;28;44631;-63
2022/11/10 06:18:04;;;;;;;0.43;0.43;;;16.50;52.50;;;;;;4930806;28;45356;-63
2022/11/10 06:20:30;;;;;;;0.40;0.40;;;16.50;52.50;;;;;;4925306;28;44618;-67
2022/11/10 06:23:12;;;;;;;0.30;0.30;;;16.50;52.50;;;;;;4917331;28;46278;-62
2022/11/10 06:25:37;;;;;;;0.50;0.50;;;16.50;52.50;;;;;;4904008;28;45514;-62
2022/11/10 06:28:03;;;;;;;0.50;0.50;;;16.50;52.60;;;;;;4918284;28;44663;-64
2022/11/10 06:30:29;;;;;;;0.35;0.35;;;16.50;52.60;;;;;;4916946;28;45226;-61
2022/11/10 06:32:55;;;;;;;0.77;0.47;;;16.50;52.50;;;;;;4923880;28;45557;-63
2022/11/10 06:35:21;;;;;;;0.70;0.60;;;16.50;52.50;;;;;;4917816;28;44599;-61
2022/11/10 06:38:06;;;;;;;0.38;0.32;;;16.40;52.50;;;;;;4924439;28;44647;-61
2022/11/10 06:40:32;;;;;;;0.40;0.40;;;16.50;52.60;;;;;;4920744;28;46254;-62
2022/11/10 06:42:58;;;;;;;0.77;0.40;;;16.50;52.50;;;;;;4918176;28;46203;-60
2022/11/10 06:45:23;;;;;;;0.40;0.40;;;16.50;52.50;;;;;;4924889;28;44948;-63
2022/11/10 06:48:08;;;;;;;0.75;0.50;;;16.40;52.50;;;;;;4915562;28;45630;-61
2022/11/10 06:50:34;;;;;;;0.47;0.47;;;16.40;52.50;;;;;;4904321;28;44617;-63
2022/11/10 06:53:00;;;;;;;1.08;0.52;;;16.40;52.60;;;;;;4900788;28;45078;-63
2022/11/10 06:55:25;;;;;;;0.60;0.40;;;16.50;52.60;;;;;;4914086;28;45547;-61
2022/11/10 06:57:51;;;;;;;0.30;0.30;;;16.40;52.50;;;;;;4919182;28;45209;-59
2022/11/10 07:00:17;;;;;;;0.43;0.43;;;16.50;52.60;;;;;;4924448;28;45471;-63
2022/11/10 07:02:42;;;;;;;0.35;0.35;;;16.50;52.60;;;;;;4930890;28;47778;-61
2022/11/10 07:05:08;;;;;;;0.50;0.50;;;16.50;52.60;;;;;;4926623;28;46013;-63
2022/11/10 07:07:33;;;;;;;0.43;0.43;;;16.50;52.60;;;;;;4934816;28;45084;-60
2022/11/10 07:09:59;;;;;;;0.35;0.35;;;16.50;52.60;;;;;;4925657;28;45274;-63
2022/11/10 07:12:24;;;;;;;0.50;0.50;;;16.40;52.60;;;;;;4923616;28;45850;-63
2022/11/10 07:14:50;;;;;;;0.30;0.30;;;16.50;52.60;;;;;;4920168;28;46232;-60
2022/11/10 07:17:15;;;;;;;0.50;0.50;;;16.40;52.50;;;;;;4926297;28;45012;-62
2022/11/10 07:19:41;;;;;;;0.68;0.52;;;16.50;52.60;;;;;;4933251;28;45623;-64
2022/11/10 07:22:07;;;;;;;0.52;0.47;;;16.50;52.50;;;;;;4923533;28;47135;-63
2022/11/10 07:24:32;;;;;;;0.40;0.30;;;16.50;52.50;;;;;;4924795;28;45266;-60
2022/11/10 07:26:58;;;;;;;0.57;0.40;;;16.50;52.50;;;;;;4908780;28;45414;-64
2022/11/10 07:29:24;;;;;;;0.40;0.40;;;16.50;52.50;;;;;;4932633;28;45218;-61
2022/11/10 07:31:49;;;;;;;0.40;0.40;;;16.50;52.50;;;;;;4922263;28;46097;-63
2022/11/10 07:34:15;;;;;;;0.52;0.38;;;16.50;52.50;;;;;;4929155;28;44635;-62
2022/11/10 07:36:40;;;;;;;0.40;0.40;;;16.50;52.50;;;;;;4927960;28;44687;-62
2022/11/10 07:39:06;;;;;;;0.50;0.40;;;16.50;52.50;;;;;;4927835;28;45520;-64
2022/11/10 07:41:31;;;;;;;0.40;0.40;;;16.50;52.60;;;;;;4921105;28;45944;-61
2022/11/10 07:43:57;;;;;;;0.60;0.40;;;16.40;52.60;;;;;;4921544;28;45386;-59
2022/11/10 07:46:23;;;;;;;0.55;0.50;;;16.50;52.60;;;;;;4932822;28;45398;-60
2022/11/10 07:48:48;;;;;;;0.40;0.40;;;16.50;52.60;;;;;;4905412;28;45322;-63
2022/11/10 07:51:14;;;;;;;0.47;0.47;;;16.40;52.60;;;;;;4932720;28;46324;-63
2022/11/10 07:53:40;;;;;;;0.47;0.40;;;16.50;52.60;;;;;;4927901;28;45426;-59
2022/11/10 07:56:06;;;;;;;0.40;0.40;;;16.40;52.60;;;;;;4924683;28;44891;-62
2022/11/10 07:58:33;;;;;;;0.40;0.40;;;16.50;52.60;;;;;;4930163;28;44741;-59
2022/11/10 08:00:58;;;;;;;0.57;0.38;;;16.50;52.60;;;;;;4915844;28;46022;-63
2022/11/10 08:03:24;;;;;;;0.98;0.50;;;16.50;52.60;;;;;;4921945;28;45379;-61
2022/11/10 08:05:49;;;;;;;0.55;0.50;;;16.50;52.60;;;;;;4920183;28;45432;-59
2022/11/10 08:08:15;;;;;;;0.52;0.52;;;16.50;52.50;;;;;;4926450;28;45480;-60
2022/11/10 08:10:40;;;;;;;0.40;0.40;;;16.50;52.50;;;;;;4924226;28;46133;-63
2022/11/10 08:13:07;;;;;;;0.40;0.40;;;16.50;52.50;;;;;;4934585;28;45625;-59
2022/11/10 08:15:33;;;;;;;0.35;0.35;;;16.50;52.40;;;;;;4906028;28;45541;-62
2022/11/10 08:18:17;;;;;;;0.60;0.47;;;16.50;52.40;;;;;;4919912;28;45283;-62
2022/11/10 08:20:43;;;;;;;0.32;0.32;;;16.60;52.40;;;;;;4911786;28;46872;-62
2022/11/10 08:23:08;;;;;;;0.90;0.55;;;16.50;52.40;;;;;;4929536;28;45282;-63
2022/11/10 08:25:35;;;;;;;0.60;0.50;;;16.60;52.40;;;;;;4902305;28;45270;-61
2022/11/10 08:28:07;;;;;;;0.30;0.30;;;16.60;52.40;;;;;;4907406;28;44719;-64
2022/11/10 08:30:34;;;;;;;0.25;0.25;;;16.60;52.40;;;;;;4914064;28;45888;-63
2022/11/10 08:33:00;;;;;;;0.40;0.40;;;16.60;52.40;;;;;;4924301;28;44944;-64
2022/11/10 08:35:28;;;;;;;0.65;0.38;;;16.60;52.30;;;;;;4915456;28;45236;-65
2022/11/10 08:37:53;;;;;;;0.50;0.50;;;16.60;52.40;;;;;;4924002;28;45448;-62
2022/11/10 08:40:19;;;;;;;0.38;0.38;;;16.60;52.30;;;;;;4914739;28;45265;-63
2022/11/10 08:42:46;;;;;;;0.50;0.50;;;16.60;52.30;;;;;;4909698;28;45618;-61
2022/11/10 08:45:12;;;;;;;0.82;0.50;;;16.60;52.40;;;;;;4916189;28;45415;-63
2022/11/10 08:47:37;;;;;;;0.40;0.40;;;16.60;52.40;;;;;;4916903;28;45048;-60
2022/11/10 08:50:04;;;;;;;0.40;0.40;;;16.60;52.30;;;;;;4923115;28;45706;-64
2022/11/10 08:52:30;;;;;;;0.40;0.40;;;16.60;52.40;;;;;;4922215;28;45277;-62
2022/11/10 08:54:55;;;;;;;0.47;0.40;;;16.60;52.30;;;;;;4916151;28;45456;-64
2022/11/10 08:57:21;;;;;;;0.68;0.57;;;16.60;52.30;;;;;;4918726;28;45517;-62
2022/11/10 08:59:46;;;;;;;0.40;0.40;;;16.60;52.30;;;;;;4912188;28;47257;-64
2022/11/10 09:02:12;;;;;;;0.38;0.38;;;16.60;52.30;;;;;;4913058;28;45544;-62
2022/11/10 09:04:37;;;;;;;0.35;0.35;;;16.60;52.30;;;;;;4916077;28;45305;-62
2022/11/10 09:07:03;;;;;;;0.93;0.50;;;16.60;52.30;;;;;;4897352;28;45512;-62
2022/11/10 09:09:28;;;;;;;0.30;0.30;;;16.60;52.30;;;;;;4918492;28;45841;-63
2022/11/10 09:11:54;;;;;;;0.30;0.30;;;16.60;52.30;;;;;;4916179;28;45512;-62
2022/11/10 09:14:20;;;;;;;0.47;0.45;;;16.60;52.30;;;;;;4919999;28;45767;-65
2022/11/10 09:16:45;;;;;;;0.85;0.50;;;16.60;52.30;;;;;;4913938;28;45250;-64
2022/11/10 09:19:11;;;;;;;0.80;0.52;;;16.60;52.30;;;;;;4919585;28;45942;-62
2022/11/10 09:21:36;;;;;;;0.35;0.35;;;16.60;52.30;;;;;;4921944;28;45278;-62
2022/11/10 09:24:02;;;;;;;0.50;0.40;;;16.70;52.40;;;;;;4918005;28;45628;-63
2022/11/10 09:26:27;;;;;;;0.20;0.20;;;16.60;52.30;;;;;;4922894;28;46047;-63
2022/11/10 09:28:53;;;;;;;0.50;0.45;;;16.70;52.30;;;;;;4915477;28;45893;-63
2022/11/10 09:31:18;;;;;;;0.50;0.45;;;16.70;52.30;;;;;;4884920;28;45616;-62
2022/11/10 09:33:44;;;;;;;0.50;0.40;;;16.70;52.20;;;;;;4917315;28;45574;-63
2022/11/10 09:36:10;;;;;;;0.60;0.45;;;16.70;52.20;;;;;;4899094;28;44916;-62
2022/11/10 09:38:35;;;;;;;0.30;0.30;;;16.70;52.20;;;;;;4916160;28;47226;-63
2022/11/10 09:41:05;;;;;;;0.30;0.30;;;16.70;52.20;;;;;;4924331;28;45369;-63
2022/11/10 09:43:33;;;;;;;0.40;0.38;;;16.70;52.10;;;;;;4902873;28;45048;-65
2022/11/10 09:45:59;;;;;;;0.35;0.30;;;16.70;52.10;;;;;;4895637;28;45159;-63
2022/11/10 09:48:33;;;;;;;0.43;0.40;;;16.80;52.20;;;;;;4901995;28;45998;-64
2022/11/10 09:51:02;;;;;;;0.38;0.38;;;16.80;52.10;;;;;;4890014;28;44877;-63
2022/11/10 09:53:38;;;;;;;0.80;0.55;;;16.80;52.10;;;;;;4904353;28;45091;-63
2022/11/10 09:56:04;;;;;;;0.40;0.40;;;16.80;52.10;;;;;;4902500;28;45325;-63
2022/11/10 09:58:48;;;;;;;0.40;0.40;;;16.80;52.10;;;;;;4900008;28;45243;-63
2022/11/10 10:01:44;;;;;;;0.35;0.35;;;16.80;52.10;;;;;;4918058;28;45197;-63
2022/11/10 10:04:29;;;;;;;0.43;0.40;;;16.80;52.10;;;;;;4908807;28;45623;-63
2022/11/10 10:07:15;;;;;;;0.73;0.40;;;16.80;52.10;;;;;;4917137;28;44965;-63
2022/11/10 10:10:14;;;;;;;0.40;0.40;;;16.80;52.10;;;;;;4919679;28;46531;-62
2022/11/10 10:12:49;;;;;;;0.30;0.30;;;16.80;52.10;;;;;;4872271;28;45623;-61
2022/11/10 10:15:34;;;;;;;0.38;0.38;;;16.80;52.10;;;;;;4914404;28;45518;-63
2022/11/10 10:18:23;;;;;;;0.85;0.40;;;16.80;52.00;;;;;;4920376;28;45392;-63
2022/11/10 10:21:09;;;;;;;0.65;0.50;;;16.80;52.00;;;;;;4904373;28;46416;-63
2022/11/10 10:23:43;;;;;;;0.52;0.47;;;16.90;52.00;;;;;;4895670;28;44931;-62
2022/11/10 10:26:14;;;;;;;0.57;0.40;;;16.90;52.00;;;;;;4923072;28;44931;-64
2022/11/10 10:28:44;;;;;;;0.30;0.30;;;16.90;52.00;;;;;;4918796;28;44708;-59
2022/11/10 10:31:24;;;;;;;0.55;0.40;;;16.90;52.00;;;;;;4915595;28;45887;-63
2022/11/10 10:33:49;;;;;;;0.43;0.43;;;16.90;52.00;;;;;;4916332;28;45113;-60
2022/11/10 10:36:23;;;;;;;0.40;0.40;;;16.90;52.00;;;;;;4919396;28;45868;-60
2022/11/10 10:38:54;;;;;;;0.40;0.40;;;16.90;52.00;;;;;;4912792;28;45382;-64
2022/11/10 10:41:23;;;;;;;0.30;0.30;;;16.90;52.00;;;;;;4918184;28;46194;-62
2022/11/10 10:43:50;;;;;;;0.45;0.40;;;16.90;52.00;;;;;;4924214;28;45415;-63
2022/11/10 10:46:17;;;;;;;0.45;0.45;;;16.90;52.60;;;;;;4916637;28;45455;-62
2022/11/10 10:48:43;;;;;;;0.30;0.30;;;16.90;51.90;;;;;;4918098;28;45206;-59
2022/11/10 10:51:08;;;;;;;0.65;0.40;;;16.90;51.90;;;;;;4917793;28;47013;-62
2022/11/10 10:53:45;;;;;;;0.32;0.30;;;16.90;51.90;;;;;;4918854;28;45091;-62
2022/11/10 10:56:21;;;;;;;0.70;0.40;;;16.90;51.90;;;;;;4915308;28;45493;-61
2022/11/10 10:58:51;;;;;;;0.73;0.40;;;16.90;52.00;;;;;;4893402;28;46233;-62
2022/11/10 11:01:16;;;;;;;0.30;0.30;;;16.90;51.90;;;;;;4918709;28;46036;-62
2022/11/10 11:03:46;;;;;;;0.30;0.30;;;16.90;51.90;;;;;;4919755;28;45262;-62
2022/11/10 11:06:15;;;;;;;0.30;0.30;;;17.00;52.00;;;;;;4916696;28;45845;-65
2022/11/10 11:08:55;;;;;;;0.40;0.40;;;17.00;51.90;;;;;;4918190;28;45451;-62
2022/11/10 11:11:27;;;;;;;0.30;0.30;;;17.00;51.90;;;;;;4919409;28;47025;-64
2022/11/10 11:14:02;;;;;;;0.33;0.33;;;17.00;51.90;;;;;;4919707;28;45203;-63
2022/11/10 11:16:28;;;;;;;0.40;0.40;;;17.00;51.90;;;;;;4914129;28;45136;-61
2022/11/10 11:18:53;;;;;;;0.60;0.20;;;17.00;51.90;;;;;;4923920;28;44934;-62
2022/11/10 11:21:33;;;;;;;0.38;0.38;;;17.00;51.90;;;;;;4919682;28;46044;-62
2022/11/10 11:24:29;;;;;;;0.50;0.50;;;17.00;51.90;;;;;;4906750;28;45476;-62
2022/11/10 11:27:04;;;;;;;0.38;0.30;;;17.00;51.90;;;;;;4915648;28;45327;-67
2022/11/10 11:29:58;;;;;;;0.47;0.40;;;17.00;51.90;;;;;;4913573;28;45260;-63
2022/11/10 11:32:56;;;;;;;0.30;0.30;;;17.00;51.90;;;;;;4916268;28;45931;-63
2022/11/10 11:35:45;;;;;;;0.45;0.40;;;17.00;51.90;;;;;;4912544;28;44948;-62
2022/11/10 11:38:28;;;;;;;0.40;0.40;;;17.00;52.00;;;;;;4916904;28;45509;-64
2022/11/10 11:41:09;;;;;;;;;;;17.00;51.90;;;;;;4921059;28;45279;-64
2022/11/10 11:44:09;;;;;;;0.43;0.40;;;17.00;52.00;;;;;;4922696;28;45149;-63
2022/11/10 11:46:43;;;;;;;0.30;0.30;;;17.00;51.90;;;;;;4916540;28;45238;-62
2022/11/10 11:49:43;;;;;;;0.30;0.30;;;17.00;52.00;;;;;;4911416;28;45344;-63
2022/11/10 11:52:34;;;;;;;0.32;0.32;;;17.00;51.90;;;;;;4935868;28;45282;-61
2022/11/10 11:55:23;;;;;;;0.45;0.32;;;17.00;52.00;;;;;;4919219;28;46204;-63
2022/11/10 11:58:00;;;;;;;0.40;0.40;;;17.00;52.00;;;;;;4921366;28;45634;-66
2022/11/10 12:00:26;;;;;;;0.40;0.40;;;17.00;52.20;;;;;;4915492;28;45735;-61
2022/11/10 12:03:03;;;;;;;0.40;0.30;;;17.00;51.90;;;;;;4889261;28;45634;-64
2022/11/10 12:05:36;;;;;;;0.45;0.40;;;17.00;51.90;;;;;;4915609;28;46056;-60
2022/11/10 12:08:15;;;;;;;0.20;0.20;;;17.00;51.90;;;;;;4912935;28;45581;-63
2022/11/10 12:10:54;;;;;;;0.30;0.30;;;17.00;51.90;;;;;;4903484;28;45209;-61
2022/11/10 12:13:33;;;;;;;0.52;0.30;;;17.00;51.90;;;;;;4917138;28;45436;-63
2022/11/10 12:16:08;;;;;;;0.40;0.40;;;17.00;51.90;;;;;;4884685;28;45284;-62
2022/11/10 12:18:53;;;;;;;0.40;0.40;;;17.00;51.90;;;;;;4901396;28;45485;-64
2022/11/10 12:21:47;;;;;;;0.25;0.25;;;17.00;51.90;;;;;;4910118;28;45252;-63
2022/11/10 12:24:15;;;;;;;0.30;0.30;;;17.00;51.90;;;;;;4919024;28;45187;-63
2022/11/10 12:26:52;;;;;;;0.40;0.40;;;17.00;51.90;;;;;;4919631;28;45358;-63
2022/11/10 12:29:38;;;;;;;2.63;0.98;;;17.00;52.00;;;;;;4909040;28;45013;-59
2022/11/10 12:32:13;;;;;;;0.40;0.40;;;17.10;52.00;;;;;;4922629;28;46183;-62
2022/11/10 12:34:45;;;;;;;0.60;0.50;;;17.00;52.00;;;;;;4884326;28;45449;-60
2022/11/10 12:37:16;;;;;;;0.30;0.30;;;17.00;52.00;;;;;;4904320;28;46919;-63
2022/11/10 12:39:57;;;;;;;0.52;0.30;;;17.00;52.00;;;;;;4906491;28;45239;-66
2022/11/10 12:42:24;;;;;;;0.30;0.30;;;17.10;52.10;;;;;;4910031;28;45527;-63
2022/11/10 12:44:55;;;;;;;0.40;0.40;;;17.10;52.10;;;;;;4903185;28;45166;-61
2022/11/10 12:47:21;;;;;;;0.77;0.50;;;17.10;52.10;;;;;;4895687;28;46158;-66
2022/11/10 12:50:02;;;;;;;0.43;0.43;;;17.00;52.00;;;;;;4897880;28;44661;-62
2022/11/10 12:52:36;;;;;;;0.50;0.40;;;17.00;52.00;;;;;;4910451;28;46871;-60
2022/11/10 12:55:02;;;;;;;0.45;0.40;;;17.00;52.10;;;;;;4904994;28;45563;-64
2022/11/10 12:57:28;;;;;;;0.40;0.40;;;17.00;52.00;;;;;;4905469;28;46203;-61
2022/11/10 12:59:59;;;;;;;0.43;0.40;;;17.00;52.10;;;;;;4904652;28;45498;-61
2022/11/10 13:02:41;;;;;;;0.50;0.30;;;17.00;52.10;;;;;;4920188;28;45516;-62
2022/11/10 13:05:27;;;;;;;0.20;0.20;;;17.10;52.10;;;;;;4918094;28;45363;-62
2022/11/10 13:08:11;;;;;;;0.45;0.40;;;17.10;52.10;;;;;;4921484;28;46867;-63
2022/11/10 13:10:37;;;;;;;0.40;0.40;;;17.10;52.00;;;;;;4914409;28;44662;-62
2022/11/10 13:13:02;;;;;;;0.55;0.40;;;17.10;52.10;;;;;;4905001;28;45317;-63
2022/11/10 13:15:34;;;;;;;0.70;0.60;;;17.10;52.10;;;;;;4919010;28;45513;-62
2022/11/10 13:18:00;;;;;;;0.40;0.40;;;17.10;52.10;;;;;;4919026;28;45907;-60
2022/11/10 13:20:37;;;;;;;0.40;0.40;;;17.10;52.10;;;;;;4915155;28;45096;-62
2022/11/10 13:23:41;;;;;;;0.30;0.30;;;17.10;52.10;;;;;;4916853;28;45315;-63
2022/11/10 13:26:10;;;;;;;0.50;0.35;;;17.10;52.00;;;;;;4893341;28;45724;-61
2022/11/10 13:28:48;;;;;;;0.90;0.40;;;17.10;52.00;;;;;;4908028;28;46115;-60
2022/11/10 13:31:25;;;;;;;0.30;0.30;;;17.10;52.10;;;;;;4914645;28;45341;-63
2022/11/10 13:34:04;;;;;;;0.40;0.40;;;17.10;52.10;;;;;;4916059;28;45273;-62
2022/11/10 13:36:43;;;;;;;0.40;0.40;;;17.10;52.00;;;;;;4915286;28;45572;-63
2022/11/10 13:39:18;;;;;;;0.73;0.40;;;17.10;52.00;;;;;;4916070;28;45422;-63
2022/11/10 13:41:51;;;;;;;0.40;0.40;;;17.10;52.10;;;;;;4917324;28;45215;-63
2022/11/10 13:44:21;;;;;;;0.40;0.40;;;17.10;52.20;;;;;;4908511;28;45100;-62
2022/11/10 13:47:09;;;;;;;0.30;0.30;;;17.00;52.20;;;;;;4921007;28;45496;-62
2022/11/10 13:49:53;;;;;;;0.30;0.30;;;17.00;52.20;;;;;;4918032;28;46175;-63
2022/11/10 13:52:38;;;;;;;0.60;0.40;;;17.10;52.20;;;;;;4917648;28;45522;-60
2022/11/10 13:55:19;;;;;;;0.68;0.40;;;17.00;52.20;;;;;;4913311;28;45410;-62
2022/11/10 13:58:05;;;;;;;0.20;0.20;;;17.10;52.20;;;;;;4916821;28;45203;-63
2022/11/10 14:00:34;;;;;;;0.38;0.38;;;17.10;52.20;;;;;;4903328;28;46128;-61
2022/11/10 14:03:06;;;;;;;0.50;0.30;;;17.10;52.20;;;;;;4926000;28;45576;-62
2022/11/10 14:05:33;;;;;;;0.70;0.40;;;17.10;52.20;;;;;;4915504;28;45346;-61
2022/11/10 14:08:05;;;;;;;0.52;0.30;;;17.10;52.20;;;;;;4916962;28;45329;-63
2022/11/10 14:10:41;;;;;;;0.40;0.40;;;17.10;52.20;;;;;;4921651;28;47115;-63
2022/11/10 14:13:12;;;;;;;0.60;0.35;;;17.10;52.20;;;;;;4902686;28;45226;-62
2022/11/10 14:15:43;;;;;;;0.30;0.30;;;17.10;52.20;;;;;;4900923;28;45024;-60
2022/11/10 14:18:36;;;;;;;0.30;0.30;;;17.10;52.70;;;;;;4889761;28;45095;-63
2022/11/10 14:21:01;;;;;;;0.38;0.38;;;17.10;52.20;;;;;;4916293;28;46019;-60
2022/11/10 14:23:37;;;;;;;0.30;0.30;;;17.10;52.20;;;;;;4908597;28;45322;-65
2022/11/10 14:26:04;;;;;;;0.68;0.40;;;17.10;52.20;;;;;;4903694;28;45022;-63
2022/11/10 14:28:31;;;;;;;0.38;0.38;;;17.10;52.10;;;;;;4898044;28;45355;-63
2022/11/10 14:30:56;;;;;;;0.30;0.28;;;17.10;52.10;;;;;;4922901;28;45929;-64
2022/11/10 14:33:22;;;;;;;0.47;0.30;;;17.10;52.10;;;;;;4911012;28;45558;-63
2022/11/10 14:36:04;;;;;;;0.90;0.45;;;17.10;52.10;;;;;;4915199;28;45159;-62
2022/11/10 14:38:34;;;;;;;0.70;0.35;;;17.10;52.00;;;;;;4915435;28;45187;-60
2022/11/10 14:41:01;;;;;;;0.32;0.30;;;17.20;52.10;;;;;;4918521;28;46236;-64
2022/11/10 14:43:29;;;;;;;0.43;0.20;;;17.10;52.00;;;;;;4886697;28;45225;-64
2022/11/10 14:45:55;;;;;;;0.28;0.28;;;17.20;52.10;;;;;;4917421;28;45198;-63
2022/11/10 14:48:23;;;;;;;0.75;0.47;;;17.20;52.10;;;;;;4919201;28;45521;-63
2022/11/10 14:50:49;;;;;;;0.40;0.40;;;17.10;52.10;;;;;;4919099;28;45189;-63
2022/11/10 14:53:20;;;;;;;0.30;0.30;;;17.20;52.10;;;;;;4894746;28;45499;-61
2022/11/10 14:55:46;;;;;;;0.38;0.38;;;17.20;52.10;;;;;;4917148;28;45510;-62
2022/11/10 14:58:24;;;;;;;0.38;0.28;;;17.10;52.10;;;;;;4925213;28;45323;-63
2022/11/10 15:00:49;;;;;;;0.22;0.22;;;17.10;52.10;;;;;;4886860;28;46436;-62
2022/11/10 15:03:31;;;;;;;0.65;0.40;;;17.10;52.10;;;;;;4914918;28;45045;-62
2022/11/10 15:05:57;;;;;;;0.30;0.30;;;17.10;52.10;;;;;;4915718;28;45453;-62
2022/11/10 15:08:22;;;;;;;0.47;0.47;;;17.10;52.10;;;;;;4901332;28;45238;-63
2022/11/10 15:10:49;;;;;;;0.30;0.30;;;17.10;52.10;;;;;;4923293;28;45589;-65
2022/11/10 15:13:25;;;;;;;0.60;0.50;;;17.20;52.20;;;;;;4922070;28;45480;-60
2022/11/10 15:15:52;;;;;;;0.57;0.40;;;17.10;52.10;;;;;;4920366;28;45486;-63
2022/11/10 15:18:28;;;;;;;0.30;0.30;;;17.10;52.20;;;;;;4915514;28;45548;-64
2022/11/10 15:21:08;;;;;;;0.20;0.20;;;17.10;52.20;;;;;;4921375;28;45712;-66
2022/11/10 15:23:36;;;;;;;0.38;0.38;;;17.10;52.20;;;;;;4905292;28;45509;-65
2022/11/10 15:26:03;;;;;;;0.22;0.22;;;17.10;52.20;;;;;;4918001;28;45442;-63
2022/11/10 15:28:35;;;;;;;0.38;0.30;;;17.10;52.20;;;;;;4915868;28;45519;-62
2022/11/10 15:31:11;;;;;;;0.47;0.40;;;17.10;52.20;;;;;;4918050;28;46013;-62
2022/11/10 15:33:37;;;;;;;0.38;0.38;;;17.10;52.20;;;;;;4920182;28;45223;-62
2022/11/10 15:36:18;;;;;;;0.30;0.30;;;17.10;52.20;;;;;;4918077;28;45261;-62
2022/11/10 15:38:44;;;;;;;0.40;0.40;;;17.10;52.20;;;;;;4915682;28;45265;-63
2022/11/10 15:41:22;;;;;;;0.40;0.40;;;17.10;52.20;;;;;;4916782;28;45254;-62
2022/11/10 15:43:47;;;;;;;0.35;0.35;;;17.10;52.20;;;;;;4919996;28;44939;-62
2022/11/10 15:46:21;;;;;;;0.40;0.40;;;17.10;52.20;;;;;;4919908;28;45497;-64
2022/11/10 15:48:47;;;;;;;0.32;0.32;;;17.10;52.20;;;;;;4923195;28;44829;-60
2022/11/10 15:51:14;;;;;;;0.20;0.20;;;17.10;52.20;;;;;;4917369;28;45982;-62
2022/11/10 15:53:41;;;;;;;0.40;0.40;;;17.20;52.20;;;;;;4924393;28;44912;-63
2022/11/10 15:56:08;;;;;;;0.30;0.30;;;17.10;52.20;;;;;;4921909;28;45371;-62
2022/11/10 15:58:34;;;;;;;0.52;0.35;;;17.10;52.20;;;;;;4918420;28;45358;-62
2022/11/10 16:01:00;;;;;;;0.20;0.20;;;17.10;52.20;;;;;;4925956;28;46177;-60
2022/11/10 16:03:26;;;;;;;0.70;0.60;;;17.10;52.20;;;;;;4904304;28;45559;-63
2022/11/10 16:05:52;;;;;;;0.40;0.40;;;17.10;52.20;;;;;;4911979;28;44740;-62
2022/11/10 16:08:20;;;;;;;0.30;0.30;;;17.10;52.20;;;;;;4924105;28;45505;-62
2022/11/10 16:10:47;;;;;;;0.40;0.40;;;17.10;52.20;;;;;;4917750;28;46903;-61
2022/11/10 16:13:15;;;;;;;0.30;0.30;;;17.10;52.30;;;;;;4923873;28;45166;-61
2022/11/10 16:15:40;;;;;;;0.30;0.30;;;17.10;52.30;;;;;;4907118;28;45519;-62
2022/11/10 16:18:29;;;;;;;0.85;0.45;;;17.10;52.30;;;;;;4908273;28;45360;-61
2022/11/10 16:20:54;;;;;;;0.40;0.40;;;17.10;52.30;;;;;;4918285;28;45513;-57
2022/11/10 16:23:20;;;;;;;0.40;0.40;;;17.10;52.40;;;;;;4920744;28;45408;-59
2022/11/10 16:25:46;;;;;;;0.40;0.40;;;17.10;52.30;;;;;;4924959;28;45353;-63
2022/11/10 16:28:15;;;;;;;0.43;0.40;;;17.10;52.30;;;;;;4917362;28;46210;-60
2022/11/10 16:30:41;;;;;;;0.32;0.32;;;17.10;52.40;;;;;;4909989;28;47254;-62
2022/11/10 16:33:15;;;;;;;0.38;0.30;;;17.10;52.30;;;;;;4924223;28;45252;-62
2022/11/10 16:35:40;;;;;;;0.38;0.30;;;17.10;52.40;;;;;;4924709;28;45273;-62
2022/11/10 16:38:23;;;;;;;0.40;0.40;;;17.10;52.30;;;;;;4923686;28;45541;-61
2022/11/10 16:40:54;;;;;;;0.63;0.47;;;17.10;52.40;;;;;;4910617;28;45658;-62
2022/11/10 16:43:19;;;;;;;1.02;0.52;;;17.10;53.00;;;;;;4913589;28;45679;-61
2022/11/10 16:45:45;;;;;;;0.60;0.50;;;17.10;52.40;;;;;;4918588;28;45429;-60
2022/11/10 16:48:13;;;;;;;0.40;0.40;;;17.10;52.40;;;;;;4904327;28;45326;-63
2022/11/10 16:50:39;;;;;;;0.77;0.40;;;17.10;53.00;;;;;;4892906;28;45233;-62
2022/11/10 16:53:05;;;;;;;0.65;0.35;;;17.00;52.40;;;;;;4911258;28;45529;-66
2022/11/10 16:55:30;;;;;;;0.38;0.30;;;17.10;52.50;;;;;;4915259;28;45462;-63
2022/11/10 16:57:56;;;;;;;0.73;0.40;;;17.00;52.40;;;;;;4900425;28;45660;-60
2022/11/10 17:00:22;;;;;;;0.52;0.43;;;17.00;52.40;;;;;;4915973;28;46114;-62
2022/11/10 17:03:00;;;;;;;0.50;0.50;;;17.00;52.50;;;;;;4923268;28;45476;-63
2022/11/10 17:05:26;;;;;;;0.50;0.45;;;17.10;52.50;;;;;;4920165;28;44692;-63
2022/11/10 17:07:52;;;;;;;0.40;0.38;;;17.00;52.50;;;;;;4922796;28;45130;-62
2022/11/10 17:10:19;;;;;;;0.98;0.35;;;17.00;52.40;;;;;;4918475;28;46035;-63
2022/11/10 17:12:45;;;;;;;0.35;0.35;;;17.10;52.50;;;;;;4910830;28;45195;-63
2022/11/10 17:15:11;;;;;;;0.90;0.50;;;17.00;52.50;;;;;;4903694;28;45309;-62
2022/11/10 17:17:37;;;;;;;0.60;0.50;;;17.00;52.50;;;;;;4913705;28;45042;-62